メインページ
METAR-TAF:

METAR-TAF

空港 :

プラハ, チェコ共和国

ヴァーツラフ・ハヴェル・プラハ国際空港

緯度: 50-06N, 経度: 014-15E, 海抜: 365m

現時点の気象観測

当レポートは10分前の14:30(UTC)に作成
西/北西の風 13kt
気温 20°C
湿度 56%
気圧 1003 hPa
視程10km以上
高度3600ftの雲は散在している

METAR: LKPR 261430Z 29013KT 9999 SCT036 20/11 Q1003 NOSIG

時間: 16:40 (14:40 UTC)

予報

当レポートは3時間40分前の11:00(UTC)に作成
予報は26日の 12時(UTC)から 27日の 18時(UTC)まで有効
西の風 12kt
視程10km以上
高度4000ftの千切れ雲あり
26日の 12時(UTC)から 26日の 15時(UTC)まで一時的に
高度3000ftの千切れ雲あり
にわか雨
確率 30% :
26日の 12時(UTC)から 26日の 15時(UTC)まで一時的に
高度3000ftの雲は散在している, 積乱雲.
26日の 15時(UTC)から 26日の 17時(UTC)まで徐々に
高度2500ftの千切れ雲あり
26日の 17時(UTC)から 27日の 18時(UTC)まで一時的に
西/北西の風 14kt、最大24ktの突風を伴う
視程: 6000m
高度1200ftの千切れ雲あり
確率 30% :
26日の 18時(UTC)から 27日の 04時(UTC)まで一時的に
西/北西の風 14kt、最大26ktの突風を伴う
視程: 3000m
高度600ftの千切れ雲あり
雨, 靄

TAF: LKPR 261100Z 2612/2718 28012KT 9999 BKN040 TEMPO 2612/2615 SHRA BKN030 PROB30 TEMPO 2612/2615 SCT030CB BECMG 2615/2617 BKN025 TEMPO 2617/2718 29014G24KT 6000 RA BKN012 PROB30 TEMPO 2618/2704 29014G26KT 3000 RA BR BKN006

4,000以上の空港の気象観測と天気予報(METAR報とTAF報)

利用可能な観測所は地図上に黄色い丸と赤い丸で示す。

丸の上にカーソルを重ねると観測所名を参照できる。

次にクリックすると気象観測と天気予報を参照できる。

マップの切り替え:黒色「×」印の緑ボタンをクリックして拡大、「-」印の緑ボタンをクリックして縮小、緑色の三角印をクリックして隣りの地図に切り替え


METAR-TAF: